Birch Bay, Washington
Current Conditions -  °F | °C
As of 11:53 PM on Thursday 18 Dec 2014 (Local Time) from KBLI Reporting Station
Moderate Rain Moderate Rain  
Wind Chill: 50°   Ceiling: 2000
Heat Index: 50°   Visibility: 5mi
Dew Point: 45°   Wind: 13mph
Humidity: 83%   Direction: 170°S
Pressure: 29.71"   Gusts: 22mph
Location:  48.9504°N, 122.711°W
Report Text: KBLI 190753Z AUTO 17011G19KT 5SM RA BKN020 OVC026 10/07 A2971 RMK AO2 PK WND 15030/0700 SLP069 P0008 T01000072 401330050
Loading
Personal Weather Stations






























Interactive Weather Map New forecast layout! Learn more

10-Day Weather Forecast

Advertisements
Track Severe Weather on mobile